Time;durP1;ratioP1;P1;durP2;ratioP2;P2;SDS_P1;SDS_P2;PMS_P1;PMS_P2;Temp;Humidity;BMP_temperature;BMP_pressure;BME280_temperature;BME280_humidity;BME280_pressure;Samples;Min_cycle;Max_cycle;Signal;HPM_P1;HPM_P2
2023/01/15 00:00:52;;;;;;;1.70;0.60;;;;;;;;;;4922119;29;20563;-68
2023/01/15 00:03:41;;;;;;;1.73;1.13;;;;;;;;;;4917827;29;20460;-68
2023/01/15 00:06:31;;;;;;;2.13;1.00;;;;;;;;;;4925868;29;20496;-69
2023/01/15 00:09:20;;;;;;;1.87;1.00;;;;;;;;;;4923858;29;20612;-69
2023/01/15 00:12:08;;;;;;;1.23;0.90;;;;;;;;;;4919433;29;20462;-69
2023/01/15 00:14:58;;;;;;;2.10;0.67;;;;;;;;;;4923060;29;20465;-69
2023/01/15 00:17:48;;;;;;;4.10;1.10;;;;;;;;;;4916886;29;21067;-69
2023/01/15 00:20:39;;;;;;;1.70;0.70;;;;;;;;;;4919014;29;20490;-69
2023/01/15 00:29:46;;;;;;;1.33;0.60;;;;;;;;;;4920306;29;20976;-69
2023/01/15 00:32:41;;;;;;;1.80;0.90;;;;;;;;;;4924746;29;20788;-70
2023/01/15 00:35:32;;;;;;;2.27;1.00;;;;;;;;;;4925430;29;21481;-70
2023/01/15 00:38:21;;;;;;;6.70;1.10;;;;;;;;;;4929323;29;20515;-70
2023/01/15 00:41:09;;;;;;;1.23;0.93;;;;;;;;;;4920616;29;20476;-69
2023/01/15 00:43:58;;;;;;;2.13;1.00;;;;;;;;;;4921434;29;20465;-68
2023/01/15 00:46:46;;;;;;;2.37;0.90;;;;;;;;;;4925212;29;20471;-69
2023/01/15 00:49:36;;;;;;;1.93;1.10;;;;;;;;;;4923759;28;20487;-69
2023/01/15 00:52:27;;;;;;;2.57;1.07;;;;;;;;;;4924239;29;20457;-69
2023/01/15 00:55:15;;;;;;;3.40;1.30;;;;;;;;;;4914746;29;20457;-70
2023/01/15 00:58:04;;;;;;;1.80;1.03;;;;;;;;;;4917887;29;20498;-69
2023/01/15 01:00:55;;;;;;;2.20;1.00;;;;;;;;;;4916028;28;20484;-70
2023/01/15 01:03:47;;;;;;;2.33;1.00;;;;;;;;;;4926656;29;20472;-70
2023/01/15 01:06:36;;;;;;;1.80;0.90;;;;;;;;;;4922832;29;20460;-69
2023/01/15 01:09:26;;;;;;;1.90;0.70;;;;;;;;;;4928475;29;20986;-70
2023/01/15 01:12:14;;;;;;;1.43;1.23;;;;;;;;;;4927296;29;20464;-70
2023/01/15 01:15:04;;;;;;;3.10;0.90;;;;;;;;;;4927210;29;20465;-71
2023/01/15 01:17:57;;;;;;;2.30;1.00;;;;;;;;;;4921623;29;20919;-69
2023/01/15 01:20:50;;;;;;;1.90;1.20;;;;;;;;;;4930213;29;20988;-70
2023/01/15 01:23:39;;;;;;;1.00;0.80;;;;;;;;;;4926777;29;20535;-70
2023/01/15 01:26:35;;;;;;;3.17;1.37;;;;;;;;;;4924615;29;20465;-70
2023/01/15 01:29:27;;;;;;;0.80;0.80;;;;;;;;;;4919103;29;20527;-69
2023/01/15 01:32:18;;;;;;;2.90;0.90;;;;;;;;;;4934180;23;20499;-74
2023/01/15 01:35:12;;;;;;;2.63;0.97;;;;;;;;;;4925228;29;20612;-75
2023/01/15 01:38:05;;;;;;;4.10;1.00;;;;;;;;;;4922802;29;20582;-74
2023/01/15 01:40:54;;;;;;;1.47;1.17;;;;;;;;;;4916121;29;20484;-74
2023/01/15 01:43:58;;;;;;;1.70;1.10;;;;;;;;;;4907471;29;20483;-73
2023/01/15 01:46:47;;;;;;;2.00;0.97;;;;;;;;;;4904924;29;20445;-75
2023/01/15 01:49:36;;;;;;;1.90;1.00;;;;;;;;;;4908922;29;20559;-74
2023/01/15 01:52:28;;;;;;;3.70;1.50;;;;;;;;;;4900475;29;20861;-74
2023/01/15 01:55:20;;;;;;;4.07;1.27;;;;;;;;;;4904838;29;20568;-74
2023/01/15 01:58:12;;;;;;;4.10;1.40;;;;;;;;;;4906202;29;20478;-75
2023/01/15 02:01:02;;;;;;;1.63;1.30;;;;;;;;;;4900789;29;20609;-75
2023/01/15 02:03:54;;;;;;;2.07;1.70;;;;;;;;;;4911668;29;20466;-75
2023/01/15 02:06:44;;;;;;;3.00;1.20;;;;;;;;;;4905847;29;20460;-74
2023/01/15 02:09:38;;;;;;;1.60;1.37;;;;;;;;;;4905416;29;20477;-76
2023/01/15 02:12:31;;;;;;;1.80;1.50;;;;;;;;;;4910341;29;20481;-76
2023/01/15 02:15:24;;;;;;;4.00;1.20;;;;;;;;;;4906095;29;20461;-75
2023/01/15 02:18:21;;;;;;;2.90;1.20;;;;;;;;;;4907467;29;20485;-76
2023/01/15 02:21:16;;;;;;;3.20;1.53;;;;;;;;;;4903882;29;20481;-74
2023/01/15 02:24:12;;;;;;;3.63;1.67;;;;;;;;;;4906840;29;20456;-76
2023/01/15 02:27:08;;;;;;;2.43;1.47;;;;;;;;;;4901397;29;20450;-74
2023/01/15 02:41:27;;;;;;;6.77;1.37;;;;;;;;;;4904113;29;20485;-76
2023/01/15 02:44:20;;;;;;;2.30;1.30;;;;;;;;;;4908224;29;20837;-75
2023/01/15 02:47:10;;;;;;;4.60;1.30;;;;;;;;;;4911622;29;20453;-76
2023/01/15 02:50:02;;;;;;;3.83;1.60;;;;;;;;;;4907235;29;20837;-75
2023/01/15 02:52:58;;;;;;;2.70;1.30;;;;;;;;;;4905371;29;20553;-74
2023/01/15 02:55:49;;;;;;;2.00;1.00;;;;;;;;;;4901399;29;21368;-75
2023/01/15 02:58:40;;;;;;;4.60;2.00;;;;;;;;;;4902797;29;20572;-74
2023/01/15 03:01:34;;;;;;;2.20;1.00;;;;;;;;;;4908146;29;20905;-76
2023/01/15 03:04:39;;;;;;;3.17;1.50;;;;;;;;;;4914942;29;20519;-75
2023/01/15 03:07:31;;;;;;;3.67;1.50;;;;;;;;;;4911176;29;20452;-74
2023/01/15 03:10:20;;;;;;;2.53;1.13;;;;;;;;;;4906666;28;20485;-74
2023/01/15 03:13:12;;;;;;;3.50;1.57;;;;;;;;;;4906659;28;20461;-76
2023/01/15 03:19:17;;;;;;;1.27;1.10;;;;;;;;;;4910426;29;20481;-75
2023/01/15 03:22:12;;;;;;;3.83;1.63;;;;;;;;;;4913773;29;20466;-76
2023/01/15 03:25:06;;;;;;;4.97;1.40;;;;;;;;;;4914464;29;20967;-74
2023/01/15 03:28:03;;;;;;;3.40;1.50;;;;;;;;;;4900671;29;20461;-74
2023/01/15 03:30:52;;;;;;;2.13;1.57;;;;;;;;;;4911109;29;20480;-75
2023/01/15 03:33:41;;;;;;;3.63;1.73;;;;;;;;;;4909635;29;20476;-74
2023/01/15 03:36:32;;;;;;;6.00;1.80;;;;;;;;;;4902259;29;20462;-76
2023/01/15 03:39:23;;;;;;;5.20;1.50;;;;;;;;;;4909278;29;20508;-76
2023/01/15 03:42:16;;;;;;;3.70;1.30;;;;;;;;;;4900733;29;20577;-73
2023/01/15 03:45:12;;;;;;;3.07;1.10;;;;;;;;;;4895109;29;20462;-75
2023/01/15 03:48:03;;;;;;;2.67;1.17;;;;;;;;;;4899852;29;20524;-75
2023/01/15 03:50:55;;;;;;;2.97;1.37;;;;;;;;;;4901136;29;20486;-75
2023/01/15 03:53:50;;;;;;;3.17;1.63;;;;;;;;;;4908244;29;20457;-75
2023/01/15 03:56:43;;;;;;;3.57;1.40;;;;;;;;;;4905506;29;20458;-74
2023/01/15 03:59:50;;;;;;;7.93;1.60;;;;;;;;;;4904190;29;20477;-75
2023/01/15 04:17:59;;;;;;;6.50;2.00;;;;;;;;;;4907122;29;20929;-75
2023/01/15 04:20:53;;;;;;;4.83;1.70;;;;;;;;;;4914830;29;20481;-74
2023/01/15 04:23:45;;;;;;;4.50;1.37;;;;;;;;;;4900148;29;20468;-74
2023/01/15 04:26:33;;;;;;;3.73;2.23;;;;;;;;;;4903653;29;20996;-75
2023/01/15 04:29:26;;;;;;;4.90;2.03;;;;;;;;;;4908359;29;20461;-75
2023/01/15 04:32:23;;;;;;;5.00;1.80;;;;;;;;;;4902570;29;20488;-74
2023/01/15 04:35:13;;;;;;;4.33;1.60;;;;;;;;;;4905601;29;20504;-75
2023/01/15 04:38:04;;;;;;;3.20;1.87;;;;;;;;;;4911073;29;20453;-75
2023/01/15 04:44:06;;;;;;;5.80;1.73;;;;;;;;;;4908403;29;20464;-76
2023/01/15 04:46:58;;;;;;;3.07;1.50;;;;;;;;;;4910646;29;20460;-75
2023/01/15 04:49:48;;;;;;;5.87;2.40;;;;;;;;;;4902749;29;20637;-76
2023/01/15 04:52:39;;;;;;;4.53;1.43;;;;;;;;;;4911863;29;20465;-74
2023/01/15 04:55:28;;;;;;;3.57;1.73;;;;;;;;;;4904630;29;20454;-76
2023/01/15 04:58:18;;;;;;;5.60;1.47;;;;;;;;;;4907932;29;20985;-74
2023/01/15 05:01:11;;;;;;;5.30;1.77;;;;;;;;;;4907022;29;20500;-75
2023/01/15 05:03:59;;;;;;;7.20;1.50;;;;;;;;;;4914618;29;20539;-76
2023/01/15 05:06:52;;;;;;;2.73;1.30;;;;;;;;;;4912963;29;20818;-76
2023/01/15 05:09:42;;;;;;;5.07;1.90;;;;;;;;;;4906848;29;20493;-75
2023/01/15 07:27:30;;;;;;;6.60;2.30;;;;;;;;;;4937976;23;20457;-76
2023/01/15 07:30:19;;;;;;;6.00;1.60;;;;;;;;;;4919966;28;20796;-76
2023/01/15 07:33:08;;;;;;;2.87;1.60;;;;;;;;;;4919851;28;20484;-76
2023/01/15 07:35:56;;;;;;;4.70;1.87;;;;;;;;;;4930797;28;22233;-75
2023/01/15 07:38:45;;;;;;;8.80;2.20;;;;;;;;;;4923580;28;20517;-76
2023/01/15 07:50:54;;;;;;;5.50;2.10;;;;;;;;;;4933025;28;20471;-74
2023/01/15 07:53:43;;;;;;;6.90;2.17;;;;;;;;;;4939396;28;20476;-74
2023/01/15 07:56:31;;;;;;;6.00;2.30;;;;;;;;;;4925113;28;20492;-75
2023/01/15 07:59:20;;;;;;;7.90;2.60;;;;;;;;;;4922015;28;20458;-75
2023/01/15 08:02:10;;;;;;;4.03;1.70;;;;;;;;;;4929546;28;20912;-73
2023/01/15 08:04:59;;;;;;;6.57;1.97;;;;;;;;;;4929965;28;23783;-75
2023/01/15 08:07:49;;;;;;;6.10;2.23;;;;;;;;;;4929701;28;20550;-74
2023/01/15 08:15:11;;;;;;;6.97;2.00;;;;;;;;;;4926988;28;20578;-75
2023/01/15 08:16:52;;;;;;;4.60;2.10;;;;;;;;;;4869712;28;20578;-74
2023/01/15 08:25:03;;;;;;;5.60;1.40;;;;;;;;;;4962703;27;20929;-72
2023/01/15 08:27:52;;;;;;;4.30;1.00;;;;;;;;;;4995100;28;20631;-72
2023/01/15 08:30:41;;;;;;;;;;;;;;;;;;4978753;28;20398;-78
2023/01/15 08:37:11;;;;;;;;;;;31.00;52.40;;;;;;5016032;27;19958;-70
2023/01/15 08:39:59;;;;;;;3.30;1.03;;;25.00;57.80;;;;;;5030119;28;20097;-69
2023/01/15 08:44:22;;;;;;;3.00;1.13;;;24.00;87.80;;;;;;4972871;27;69544;-73
2023/01/15 11:10:14;;;;;;;3.20;1.40;;;10.90;99.90;;;;;;5038040;27;20593;-68
2023/01/15 11:21:13;;;;;;;3.67;1.43;;;7.80;99.90;;;;;;5032402;28;20838;-67
2023/01/15 11:23:41;;;;;;;3.37;1.23;;;7.70;99.90;;;;;;5035405;28;20493;-68
2023/01/15 11:26:18;;;;;;;2.67;1.37;;;7.60;99.90;;;;;;5037854;28;20485;-67
2023/01/15 11:28:47;;;;;;;3.53;1.60;;;7.60;99.90;;;;;;5025640;28;20501;-68
2023/01/15 11:31:15;;;;;;;3.67;1.40;;;7.50;99.90;;;;;;5029799;28;20495;-68
2023/01/15 11:33:45;;;;;;;2.53;1.30;;;7.50;99.90;;;;;;5034000;28;20559;-68
2023/01/15 11:36:22;;;;;;;3.90;1.50;;;7.60;99.90;;;;;;5035639;28;20470;-68
2023/01/15 11:38:51;;;;;;;2.10;1.23;;;7.50;99.90;;;;;;5028662;28;20463;-68
2023/01/15 11:50:42;;;;;;;2.90;1.87;;;7.40;99.90;;;;;;5025501;28;20486;-67
2023/01/15 11:52:45;;;;;;;3.83;1.40;;;7.30;99.90;;;;;;5040786;28;20868;-68
2023/01/15 11:55:17;;;;;;;3.70;1.93;;;7.20;99.90;;;;;;5034781;28;20478;-68
2023/01/15 11:57:49;;;;;;;1.73;0.93;;;7.20;99.90;;;;;;5036910;28;20976;-68
2023/01/15 12:00:22;;;;;;;4.40;1.03;;;7.10;99.90;;;;;;5037519;28;20506;-68
2023/01/15 12:02:52;;;;;;;3.43;1.07;;;6.90;99.90;;;;;;5037773;28;21086;-68
2023/01/15 12:05:22;;;;;;;2.10;1.10;;;6.70;99.90;;;;;;5042017;28;20474;-68
2023/01/15 12:07:53;;;;;;;13.40;10.10;;;6.50;99.90;;;;;;5034463;28;20505;-68
2023/01/15 12:11:02;;;;;;;173.37;72.73;;;6.30;99.90;;;;;;5062858;28;21050;-67
2023/01/15 12:13:30;;;;;;;83.70;40.40;;;6.30;99.90;;;;;;5049587;28;20577;-68
2023/01/15 12:16:05;;;;;;;2.00;1.30;;;6.30;99.90;;;;;;5049578;28;20469;-68
2023/01/15 12:18:52;;;;;;;0.83;0.83;;;6.40;99.90;;;;;;5054895;28;20469;-68
2023/01/15 12:21:37;;;;;;;1.30;0.67;;;6.40;99.90;;;;;;5046020;28;20486;-67
2023/01/15 12:24:29;;;;;;;1.10;0.60;;;6.40;99.90;;;;;;5036050;28;20486;-67
2023/01/15 12:27:10;;;;;;;0.90;0.50;;;6.30;99.90;;;;;;5042965;28;20844;-67
2023/01/15 12:29:45;;;;;;;1.00;0.70;;;6.30;99.90;;;;;;5038864;28;20486;-66
2023/01/15 12:32:17;;;;;;;1.57;0.80;;;6.30;99.90;;;;;;5043837;28;20479;-66
2023/01/15 12:34:53;;;;;;;1.73;0.97;;;6.40;99.90;;;;;;5043164;28;20520;-66
2023/01/15 12:37:25;;;;;;;1.67;1.10;;;6.30;99.90;;;;;;5045569;28;20477;-67
2023/01/15 12:39:58;;;;;;;1.00;0.87;;;6.30;99.90;;;;;;5041311;28;20865;-68
2023/01/15 12:45:20;;;;;;;1.90;1.30;;;6.20;99.90;;;;;;5040280;28;20470;-67
2023/01/15 12:47:53;;;;;;;1.87;1.27;;;6.20;99.90;;;;;;5045718;28;20526;-68
2023/01/15 12:50:29;;;;;;;1.50;1.30;;;6.20;99.90;;;;;;5041752;28;20490;-66
2023/01/15 12:53:03;;;;;;;2.97;1.60;;;6.10;99.90;;;;;;5051019;28;20489;-68
2023/01/15 12:55:35;;;;;;;2.70;1.40;;;6.20;99.90;;;;;;5044580;28;20493;-68
2023/01/15 12:58:10;;;;;;;3.50;1.47;;;6.40;99.90;;;;;;5032214;28;20866;-68
2023/01/15 13:00:42;;;;;;;2.17;1.63;;;6.60;99.90;;;;;;5025348;28;20484;-67
2023/01/15 13:03:19;;;;;;;5.93;1.80;;;6.70;99.90;;;;;;5026683;28;20486;-67
2023/01/15 13:05:51;;;;;;;3.30;1.77;;;6.70;99.90;;;;;;5021496;28;20520;-68
2023/01/15 13:08:24;;;;;;;4.67;1.77;;;6.80;99.90;;;;;;5033179;28;20548;-68
2023/01/15 13:10:52;;;;;;;4.77;1.33;;;6.70;99.90;;;;;;5028922;28;20489;-67
2023/01/15 13:13:23;;;;;;;2.13;1.93;;;6.70;99.90;;;;;;5030182;28;20520;-68
2023/01/15 13:16:13;;;;;;;2.97;1.93;;;6.60;99.90;;;;;;5028288;28;21218;-67
2023/01/15 13:18:51;;;;;;;2.30;1.90;;;6.60;99.90;;;;;;5034051;28;20558;-67
2023/01/15 13:21:20;;;;;;;4.30;1.80;;;6.60;99.90;;;;;;5017020;28;20497;-68
2023/01/15 13:24:10;;;;;;;4.13;1.80;;;6.60;99.90;;;;;;5023917;28;20872;-68
2023/01/15 13:27:00;;;;;;;2.03;1.80;;;6.60;99.90;;;;;;5015506;28;20469;-69
2023/01/15 13:29:39;;;;;;;5.10;2.30;;;6.60;99.90;;;;;;5030366;28;20494;-71
2023/01/15 13:32:14;;;;;;;3.40;2.30;;;6.60;99.90;;;;;;5020876;28;20978;-71
2023/01/15 13:34:47;;;;;;;5.33;1.90;;;6.60;99.90;;;;;;5026807;28;20893;-71
2023/01/15 13:37:25;;;;;;;3.37;1.93;;;6.50;99.90;;;;;;5033270;28;20481;-71
2023/01/15 13:39:58;;;;;;;4.97;1.90;;;6.50;99.90;;;;;;5034465;28;20631;-70
2023/01/15 13:42:34;;;;;;;2.90;1.80;;;6.60;99.90;;;;;;5039352;28;20999;-69
2023/01/15 13:45:21;;;;;;;5.43;1.90;;;6.70;99.90;;;;;;5032067;28;20980;-70
2023/01/15 13:47:53;;;;;;;3.57;1.60;;;6.60;99.90;;;;;;5037722;28;20466;-70
2023/01/15 13:50:28;;;;;;;5.60;1.90;;;6.70;99.90;;;;;;5036962;28;20568;-70
2023/01/15 13:53:03;;;;;;;3.83;1.80;;;6.70;99.90;;;;;;5025686;28;20556;-70
2023/01/15 13:55:34;;;;;;;6.63;2.23;;;6.70;99.90;;;;;;5024873;28;21225;-70
2023/01/15 13:58:02;;;;;;;6.60;2.17;;;6.80;99.90;;;;;;4999255;28;20482;-71
2023/01/15 14:00:32;;;;;;;2.80;1.67;;;6.80;99.90;;;;;;5003533;28;20483;-72
2023/01/15 14:03:03;;;;;;;2.40;1.80;;;6.90;99.90;;;;;;5029313;28;20888;-77
2023/01/15 14:05:33;;;;;;;2.83;1.70;;;7.00;99.90;;;;;;5024490;28;20561;-74
2023/01/15 14:08:03;;;;;;;3.00;1.73;;;7.10;99.90;;;;;;5034106;28;21187;-74
2023/01/15 14:10:38;;;;;;;2.90;2.00;;;7.20;99.90;;;;;;5032966;28;21023;-73
2023/01/15 14:13:45;;;;;;;2.63;1.97;;;7.20;99.90;;;;;;5040843;28;21391;-73
2023/01/15 14:16:27;;;;;;;2.27;1.50;;;7.10;99.90;;;;;;5025306;28;20470;-72
2023/01/15 14:19:21;;;;;;;3.47;1.73;;;7.10;99.90;;;;;;5040920;28;20502;-72
2023/01/15 14:22:01;;;;;;;4.23;1.57;;;7.00;99.90;;;;;;5038651;28;20485;-73
2023/01/15 14:24:52;;;;;;;8.20;2.30;;;7.00;99.90;;;;;;5032957;28;20581;-71
2023/01/15 14:27:38;;;;;;;5.60;1.80;;;7.00;99.90;;;;;;5042171;28;20949;-72
2023/01/15 14:30:21;;;;;;;3.37;1.70;;;7.10;99.90;;;;;;5030721;28;20492;-73
2023/01/15 14:33:04;;;;;;;3.90;1.90;;;7.10;99.90;;;;;;5035873;28;20582;-72
2023/01/15 14:35:44;;;;;;;2.90;1.90;;;7.10;99.90;;;;;;5037245;28;20692;-72
2023/01/15 14:38:17;;;;;;;5.13;2.00;;;7.10;99.90;;;;;;5031343;28;20470;-71
2023/01/15 14:40:59;;;;;;;5.43;2.10;;;7.10;99.90;;;;;;5040217;28;20486;-72
2023/01/15 14:43:30;;;;;;;3.60;1.80;;;7.10;99.90;;;;;;5042184;28;20490;-72
2023/01/15 14:46:12;;;;;;;5.03;2.00;;;7.10;99.90;;;;;;5041145;28;20474;-72
2023/01/15 14:48:40;;;;;;;5.43;1.97;;;7.10;99.90;;;;;;5035829;28;20984;-72
2023/01/15 14:51:13;;;;;;;6.53;5.20;;;7.10;99.90;;;;;;5038065;28;20497;-72
2023/01/15 14:53:45;;;;;;;5.60;3.43;;;7.10;99.90;;;;;;5038469;28;20494;-72
2023/01/15 14:56:19;;;;;;;6.90;4.73;;;7.10;99.90;;;;;;5038239;28;20462;-72
2023/01/15 14:58:56;;;;;;;7.30;3.60;;;7.10;99.90;;;;;;5038247;28;20980;-71
2023/01/15 15:01:39;;;;;;;5.00;2.60;;;7.10;99.90;;;;;;5032861;28;20497;-74
2023/01/15 15:04:19;;;;;;;5.40;2.23;;;7.10;99.90;;;;;;5046592;28;20526;-71
2023/01/15 15:06:54;;;;;;;2.10;1.90;;;7.10;99.90;;;;;;5027486;28;22385;-73
2023/01/15 15:09:30;;;;;;;3.03;1.67;;;7.10;99.90;;;;;;5036318;28;20484;-72
2023/01/15 15:12:27;;;;;;;3.83;1.90;;;7.20;99.90;;;;;;5033553;28;20486;-72
2023/01/15 15:15:02;;;;;;;2.67;1.60;;;7.20;99.90;;;;;;5022473;28;20474;-71
2023/01/15 15:17:37;;;;;;;3.37;2.83;;;7.20;99.90;;;;;;5043187;28;20490;-72
2023/01/15 15:20:31;;;;;;;3.30;1.80;;;7.20;99.90;;;;;;5040731;28;20470;-72
2023/01/15 15:23:06;;;;;;;1.80;1.70;;;7.10;99.90;;;;;;5045408;28;21031;-71
2023/01/15 15:25:38;;;;;;;2.10;1.83;;;7.10;99.90;;;;;;5043795;28;20466;-71
2023/01/15 15:28:10;;;;;;;8.00;2.50;;;7.00;99.90;;;;;;5039098;28;20558;-71
2023/01/15 15:30:43;;;;;;;3.53;1.87;;;7.00;99.90;;;;;;5042247;28;20494;-71
2023/01/15 15:33:17;;;;;;;4.10;2.10;;;6.90;99.90;;;;;;5041179;28;20640;-71
2023/01/15 15:35:48;;;;;;;3.57;1.97;;;6.90;99.90;;;;;;5041101;28;20475;-71
2023/01/15 15:38:19;;;;;;;5.33;2.27;;;6.80;99.90;;;;;;5033726;28;20481;-72
2023/01/15 15:40:51;;;;;;;4.30;1.50;;;6.60;99.90;;;;;;5019932;28;20869;-73
2023/01/15 15:49:10;;;;;;;2.87;1.63;;;6.20;99.90;;;;;;5035320;28;20471;-71
2023/01/15 15:51:39;;;;;;;3.33;1.80;;;6.10;99.90;;;;;;5018190;28;20501;-71
2023/01/15 15:54:18;;;;;;;3.20;2.40;;;6.00;99.90;;;;;;5027202;28;20490;-71
2023/01/15 15:56:57;;;;;;;4.40;1.60;;;5.90;99.90;;;;;;5016985;28;20484;-71
2023/01/15 15:59:30;;;;;;;2.40;1.63;;;5.90;99.90;;;;;;5029206;28;20957;-73
2023/01/15 16:02:00;;;;;;;1.50;1.33;;;5.90;99.90;;;;;;5026338;28;20477;-74
2023/01/15 16:04:28;;;;;;;4.10;2.37;;;5.80;99.90;;;;;;5029488;28;20470;-73
2023/01/15 16:06:58;;;;;;;3.40;2.53;;;5.80;99.90;;;;;;5010213;28;20492;-71
2023/01/15 16:09:27;;;;;;;4.43;2.80;;;5.80;99.90;;;;;;5035101;28;20466;-73
2023/01/15 16:12:05;;;;;;;5.27;3.00;;;5.80;99.90;;;;;;5041330;28;20497;-72
2023/01/15 16:14:36;;;;;;;4.87;3.73;;;5.80;99.90;;;;;;5018157;28;20817;-72
2023/01/15 16:17:04;;;;;;;4.90;2.90;;;5.70;99.90;;;;;;5031547;28;20479;-72
2023/01/15 16:19:32;;;;;;;6.97;4.70;;;5.70;99.90;;;;;;5037427;28;21123;-71
2023/01/15 16:22:00;;;;;;;3.03;2.43;;;5.70;99.90;;;;;;5035747;28;20462;-72
2023/01/15 16:24:29;;;;;;;5.53;3.20;;;5.70;99.90;;;;;;5028691;28;20505;-74
2023/01/15 16:27:06;;;;;;;5.77;2.63;;;5.70;99.90;;;;;;5022301;28;20474;-73
2023/01/15 16:29:35;;;;;;;4.67;2.50;;;5.60;99.90;;;;;;5028276;28;20488;-72
2023/01/15 16:32:10;;;;;;;2.97;2.50;;;5.60;99.90;;;;;;5038903;28;20496;-71
2023/01/15 16:34:39;;;;;;;3.07;2.00;;;5.60;99.90;;;;;;5040699;28;20952;-72
2023/01/15 16:37:23;;;;;;;2.80;2.20;;;5.60;99.90;;;;;;5033204;28;20485;-71
2023/01/15 16:39:52;;;;;;;4.63;3.50;;;5.50;99.90;;;;;;5027930;28;20490;-74
2023/01/15 16:42:26;;;;;;;3.10;1.63;;;5.50;99.90;;;;;;5024507;28;21024;-72
2023/01/15 16:44:56;;;;;;;5.47;2.47;;;5.50;99.90;;;;;;5025288;28;20504;-72
2023/01/15 16:47:26;;;;;;;2.70;2.00;;;5.50;99.90;;;;;;5024815;28;20469;-73
2023/01/15 16:50:13;;;;;;;1.70;1.57;;;5.50;99.90;;;;;;5027356;28;20489;-73
2023/01/15 16:52:50;;;;;;;2.63;2.00;;;5.50;99.90;;;;;;5029222;28;20500;-73
2023/01/15 16:55:39;;;;;;;1.53;1.20;;;5.50;99.90;;;;;;5024250;28;20553;-73
2023/01/15 16:58:19;;;;;;;2.40;1.73;;;5.50;99.90;;;;;;5043887;28;20478;-72
2023/01/15 17:00:49;;;;;;;1.50;1.40;;;5.50;99.90;;;;;;5028147;28;20490;-72
2023/01/15 17:03:20;;;;;;;3.93;2.37;;;5.50;99.90;;;;;;5023901;28;20486;-74
2023/01/15 17:05:50;;;;;;;2.47;1.60;;;5.50;99.90;;;;;;5037385;28;20470;-72
2023/01/15 17:08:19;;;;;;;3.40;2.60;;;5.50;99.90;;;;;;5040240;28;20478;-71
2023/01/15 17:10:58;;;;;;;2.30;1.83;;;5.50;99.90;;;;;;5037976;28;20486;-71
2023/01/15 17:13:34;;;;;;;1.70;1.40;;;5.50;99.90;;;;;;5032631;28;22239;-73
2023/01/15 17:16:06;;;;;;;3.47;2.80;;;5.50;99.90;;;;;;5030310;28;21187;-73
2023/01/15 17:18:35;;;;;;;2.37;1.90;;;5.40;99.90;;;;;;5025906;28;20604;-73
2023/01/15 17:21:03;;;;;;;2.50;1.90;;;5.40;99.90;;;;;;5030654;28;20478;-73
2023/01/15 17:23:41;;;;;;;2.67;2.10;;;5.40;99.90;;;;;;5030048;28;20494;-74
2023/01/15 17:26:15;;;;;;;3.87;1.80;;;5.40;99.90;;;;;;5020401;28;20481;-73
2023/01/15 17:28:43;;;;;;;2.90;2.47;;;5.50;99.90;;;;;;5027418;28;20494;-73
2023/01/15 17:31:19;;;;;;;3.00;2.37;;;5.50;99.90;;;;;;5029598;28;20850;-73
2023/01/15 17:33:49;;;;;;;4.40;2.60;;;5.50;99.90;;;;;;5034883;28;20490;-73
2023/01/15 17:36:17;;;;;;;4.30;2.37;;;5.50;99.90;;;;;;5036390;28;20470;-74
2023/01/15 17:38:46;;;;;;;2.73;1.97;;;5.50;99.90;;;;;;5027976;28;21202;-74
2023/01/15 17:41:17;;;;;;;2.27;1.90;;;5.50;99.90;;;;;;5022965;28;20493;-71
2023/01/15 17:43:46;;;;;;;4.33;2.30;;;5.50;99.90;;;;;;5038691;28;20502;-71
2023/01/15 17:46:14;;;;;;;2.17;1.60;;;5.60;99.90;;;;;;5034438;28;20576;-74
2023/01/15 17:48:42;;;;;;;2.13;1.73;;;5.60;99.90;;;;;;5023054;28;20953;-72
2023/01/15 17:51:12;;;;;;;1.90;1.53;;;5.60;99.90;;;;;;5033908;28;20486;-73
2023/01/15 17:53:40;;;;;;;5.50;1.73;;;5.60;99.90;;;;;;5034345;28;21039;-71
2023/01/15 18:07:23;;;;;;;3.57;2.60;;;5.60;99.90;;;;;;5031519;28;20515;-71
2023/01/15 18:09:51;;;;;;;2.90;2.30;;;5.60;99.90;;;;;;5030628;28;20498;-76
2023/01/15 18:12:20;;;;;;;2.63;2.40;;;5.70;99.90;;;;;;5038603;28;21178;-77
2023/01/15 18:14:49;;;;;;;4.60;2.77;;;5.70;99.90;;;;;;5033242;28;21253;-74
2023/01/15 18:17:17;;;;;;;5.03;2.80;;;5.80;99.90;;;;;;5034350;28;20473;-74
2023/01/15 18:19:45;;;;;;;3.70;3.07;;;5.80;99.90;;;;;;5011022;28;20487;-74
2023/01/15 18:22:14;;;;;;;5.30;2.70;;;5.80;99.90;;;;;;5036068;28;20467;-72
2023/01/15 18:24:42;;;;;;;9.33;3.40;;;5.80;99.90;;;;;;5032828;28;20478;-74
2023/01/15 18:27:10;;;;;;;3.40;3.10;;;5.80;99.90;;;;;;5029505;28;21194;-71
2023/01/15 18:29:39;;;;;;;3.50;2.97;;;5.80;99.90;;;;;;5032490;28;20568;-72
2023/01/15 18:32:10;;;;;;;3.57;3.00;;;5.80;99.90;;;;;;5034052;28;20492;-71
2023/01/15 18:34:38;;;;;;;4.27;3.23;;;5.80;99.90;;;;;;5030501;28;20946;-72
2023/01/15 18:37:06;;;;;;;4.20;3.03;;;5.80;99.90;;;;;;5039202;28;20838;-72
2023/01/15 18:39:36;;;;;;;3.97;3.40;;;5.80;99.90;;;;;;5024077;28;20501;-72
2023/01/15 18:47:37;;;;;;;3.27;2.97;;;5.90;99.90;;;;;;5028733;28;20494;-74
2023/01/15 18:50:06;;;;;;;3.37;3.07;;;5.90;99.90;;;;;;5026100;28;20497;-72
2023/01/15 18:52:49;;;;;;;2.87;2.60;;;5.90;99.90;;;;;;5017948;28;21035;-76
2023/01/15 18:55:19;;;;;;;3.00;2.63;;;5.90;99.90;;;;;;5044398;28;22323;-77
2023/01/15 18:57:47;;;;;;;12.50;3.03;;;5.90;99.90;;;;;;5037852;28;20473;-75
2023/01/15 19:00:16;;;;;;;3.87;3.07;;;6.00;99.90;;;;;;5037258;28;20489;-73
2023/01/15 19:02:46;;;;;;;5.10;2.87;;;5.90;99.90;;;;;;5025718;28;20513;-74
2023/01/15 19:05:15;;;;;;;5.73;3.00;;;5.90;99.90;;;;;;5034889;28;20478;-76
2023/01/15 19:07:44;;;;;;;7.63;3.97;;;5.90;99.90;;;;;;5032592;28;20540;-73
2023/01/15 19:10:13;;;;;;;2.97;2.77;;;5.90;99.90;;;;;;5034346;28;20577;-75
2023/01/15 19:12:42;;;;;;;3.63;2.90;;;5.90;99.90;;;;;;5030840;28;21354;-73
2023/01/15 19:20:46;;;;;;;3.03;2.63;;;5.90;99.90;;;;;;5039213;28;20478;-73
2023/01/15 19:23:14;;;;;;;5.07;2.90;;;5.90;99.90;;;;;;5031243;28;20497;-74
2023/01/15 19:25:44;;;;;;;4.63;3.03;;;5.80;99.90;;;;;;5042924;28;20466;-76
2023/01/15 19:28:14;;;;;;;6.60;2.77;;;5.80;99.90;;;;;;5041273;28;20466;-77
2023/01/15 19:31:34;;;;;;;2.83;2.63;;;5.80;99.90;;;;;;5057045;23;20573;-78
2023/01/15 19:33:33;;;;;;;4.70;2.53;;;5.80;99.90;;;;;;5055342;28;20540;-76
2023/01/15 19:36:01;;;;;;;6.70;3.07;;;5.80;99.90;;;;;;5055547;28;20731;-77
2023/01/15 19:38:29;;;;;;;3.37;2.40;;;5.80;99.90;;;;;;5061839;28;20478;-76
2023/01/15 19:50:17;;;;;;;4.03;2.50;;;5.80;99.90;;;;;;5048626;28;21079;-76
2023/01/15 19:54:58;;;;;;;3.67;2.90;;;5.80;99.90;;;;;;5045986;28;20470;-79
2023/01/15 19:57:26;;;;;;;3.80;2.93;;;5.80;99.90;;;;;;5059124;28;20473;-79
2023/01/15 19:59:54;;;;;;;3.23;2.83;;;5.80;99.90;;;;;;5044144;28;20577;-76
2023/01/15 20:02:22;;;;;;;3.80;3.47;;;5.80;99.90;;;;;;5056803;28;20470;-77
2023/01/15 20:04:52;;;;;;;3.20;3.00;;;5.80;99.90;;;;;;5041945;28;20500;-78
2023/01/15 20:07:20;;;;;;;4.73;3.47;;;5.80;99.90;;;;;;5055363;28;20473;-77
2023/01/15 20:09:48;;;;;;;3.90;2.87;;;5.70;99.90;;;;;;5064747;28;20492;-76
2023/01/15 20:15:01;;;;;;;3.33;3.00;;;5.70;99.90;;;;;;5061946;28;20469;-76
2023/01/15 20:17:30;;;;;;;3.60;3.30;;;5.60;99.90;;;;;;5066237;28;20477;-76
2023/01/15 20:19:59;;;;;;;3.20;2.77;;;5.60;99.90;;;;;;5053661;28;20493;-77
2023/01/15 20:22:30;;;;;;;3.63;3.17;;;5.60;99.90;;;;;;5063013;28;20573;-76
2023/01/15 20:24:58;;;;;;;3.97;3.40;;;5.60;99.90;;;;;;5060306;28;20497;-77
2023/01/15 20:27:26;;;;;;;3.73;3.43;;;5.60;99.90;;;;;;5063467;28;20470;-78
2023/01/15 20:29:54;;;;;;;4.77;3.90;;;5.60;99.90;;;;;;5060175;28;20490;-79
2023/01/15 20:32:22;;;;;;;3.00;2.80;;;5.60;99.90;;;;;;5063677;28;20478;-77
2023/01/15 20:34:50;;;;;;;3.20;2.90;;;5.60;99.90;;;;;;5060383;28;20910;-77
2023/01/15 20:37:19;;;;;;;4.73;3.40;;;5.60;99.90;;;;;;5057332;28;21091;-77
2023/01/15 20:39:47;;;;;;;5.07;3.80;;;5.60;99.90;;;;;;5062313;28;20486;-76
2023/01/15 20:45:06;;;;;;;8.63;4.20;;;5.60;99.90;;;;;;5056248;28;20478;-78
2023/01/15 20:50:20;;;;;;;5.50;3.43;;;5.60;99.90;;;;;;5051829;28;20498;-77
2023/01/15 20:52:51;;;;;;;4.10;3.20;;;5.60;99.90;;;;;;5055064;28;20470;-75
2023/01/15 20:55:21;;;;;;;3.97;3.23;;;5.60;99.90;;;;;;5055590;28;20470;-76
2023/01/15 20:57:49;;;;;;;3.83;3.20;;;5.60;99.90;;;;;;5056596;28;20591;-76
2023/01/15 21:00:19;;;;;;;3.90;3.60;;;5.70;99.90;;;;;;5060860;28;20823;-76
2023/01/15 21:02:47;;;;;;;5.43;3.37;;;5.70;99.90;;;;;;5045445;28;21137;-77
2023/01/15 21:05:15;;;;;;;6.60;3.47;;;5.70;99.90;;;;;;5054837;28;20458;-78
2023/01/15 21:07:43;;;;;;;5.00;3.40;;;5.70;99.90;;;;;;5057041;28;20473;-76
2023/01/15 21:10:14;;;;;;;3.70;3.37;;;5.80;99.90;;;;;;5044361;28;20861;-76
2023/01/15 21:12:42;;;;;;;5.67;3.53;;;5.80;99.90;;;;;;5054389;28;20471;-77
2023/01/15 21:15:11;;;;;;;6.20;3.67;;;5.80;99.90;;;;;;5053634;28;20481;-76
2023/01/15 21:17:39;;;;;;;3.13;2.93;;;5.80;99.90;;;;;;5052609;28;20479;-76
2023/01/15 21:20:10;;;;;;;3.40;3.10;;;5.80;99.90;;;;;;5065071;28;21143;-76
2023/01/15 21:22:38;;;;;;;3.80;3.50;;;5.80;99.90;;;;;;5053650;28;20899;-76
2023/01/15 21:25:08;;;;;;;5.40;3.40;;;5.80;99.90;;;;;;5061994;28;20466;-76